createdAt,value
2023-05-15T00:04:34.848Z,14.60
2023-05-15T00:09:37.560Z,14.70
2023-05-15T00:14:40.090Z,14.60
2023-05-15T00:19:42.713Z,14.50
2023-05-15T00:24:45.291Z,14.50
2023-05-15T00:29:47.754Z,14.40
2023-05-15T00:34:50.196Z,14.30
2023-05-15T00:39:52.755Z,14.30
2023-05-15T00:44:56.849Z,14.00
2023-05-15T00:50:00.328Z,13.90
2023-05-15T00:55:04.056Z,13.70
2023-05-15T01:00:10.537Z,13.60
2023-05-15T01:05:13.383Z,13.60
2023-05-15T01:10:17.854Z,13.60
2023-05-15T01:15:20.326Z,13.30
2023-05-15T01:20:23.597Z,13.40
2023-05-15T01:25:54.190Z,13.30
2023-05-15T01:30:59.624Z,13.00
2023-05-15T01:36:20.816Z,12.80
2023-05-15T01:41:31.673Z,12.60
2023-05-15T01:46:39.580Z,12.60
2023-05-15T01:51:44.487Z,12.60
2023-05-15T01:56:47.353Z,12.50
2023-05-15T02:01:51.124Z,12.50
2023-05-15T02:06:55.117Z,12.40
2023-05-15T02:11:58.645Z,12.40
2023-05-15T02:17:01.597Z,12.40
2023-05-15T02:22:04.335Z,12.40
2023-05-15T02:27:17.901Z,12.40
2023-05-15T02:32:42.211Z,12.60
2023-05-15T02:37:49.529Z,12.60
2023-05-15T02:42:54.399Z,12.60
2023-05-15T02:47:57.583Z,12.50
2023-05-15T02:53:10.785Z,12.60
2023-05-15T02:58:13.381Z,12.60
2023-05-15T03:03:15.974Z,12.60
2023-05-15T03:08:19.284Z,12.60
2023-05-15T03:13:22.059Z,12.40
2023-05-15T03:18:24.600Z,12.40
2023-05-15T03:23:27.118Z,12.40
2023-05-15T03:28:29.691Z,12.40
2023-05-15T03:33:32.305Z,12.40
2023-05-15T03:38:34.982Z,12.40
2023-05-15T03:43:37.467Z,12.30
2023-05-15T03:48:40.269Z,12.30
2023-05-15T03:53:42.781Z,12.30
2023-05-15T03:58:45.348Z,12.30
2023-05-15T04:03:47.984Z,12.40
2023-05-15T04:08:50.682Z,12.40
2023-05-15T04:13:53.238Z,12.40
2023-05-15T04:18:55.862Z,12.50
2023-05-15T04:23:58.441Z,12.60
2023-05-15T04:29:04.458Z,12.50
2023-05-15T04:34:07.253Z,12.30
2023-05-15T04:39:09.812Z,12.10
2023-05-15T04:49:15.523Z,12.30
2023-05-15T04:54:18.013Z,12.40
2023-05-15T04:59:20.639Z,12.50
2023-05-15T05:04:23.408Z,12.50
2023-05-15T05:09:26.124Z,12.60
2023-05-15T05:14:28.859Z,12.60
2023-05-15T05:19:31.553Z,12.70
2023-05-15T05:24:37.711Z,12.70
2023-05-15T05:29:40.151Z,12.70
2023-05-15T05:34:42.710Z,12.60
2023-05-15T05:39:45.191Z,12.60
2023-05-15T05:44:47.948Z,12.50
2023-05-15T05:49:50.600Z,12.40
2023-05-15T05:59:56.263Z,12.30
2023-05-15T06:04:59.230Z,12.30
2023-05-15T06:10:02.001Z,12.30
2023-05-15T06:15:05.114Z,12.50
2023-05-15T06:25:14.196Z,12.70
2023-05-15T06:30:16.723Z,12.70
2023-05-15T06:35:19.275Z,12.80
2023-05-15T06:40:21.875Z,12.80
2023-05-15T06:45:24.609Z,12.80
2023-05-15T06:50:27.503Z,12.90
2023-05-15T06:55:30.359Z,13.10
2023-05-15T07:00:32.876Z,13.30
2023-05-15T07:05:35.466Z,13.60
2023-05-15T07:10:37.976Z,13.70
2023-05-15T07:15:40.559Z,13.50
2023-05-15T07:20:43.075Z,13.70
2023-05-15T07:25:46.291Z,13.90
2023-05-15T07:30:49.479Z,14.50
2023-05-15T07:35:52.174Z,14.40
2023-05-15T07:40:54.960Z,14.80
2023-05-15T07:45:57.464Z,15.20
2023-05-15T07:51:00.000Z,15.20
2023-05-15T07:56:02.939Z,15.20
2023-05-15T08:01:05.991Z,14.90
2023-05-15T08:06:08.525Z,14.70
2023-05-15T08:11:11.098Z,14.50
2023-05-15T08:16:13.583Z,14.50
2023-05-15T08:21:16.193Z,14.80
2023-05-15T08:26:18.813Z,15.00
2023-05-15T08:31:21.608Z,14.80
2023-05-15T08:36:24.290Z,14.80
2023-05-15T08:46:41.584Z,14.60
2023-05-15T08:51:44.535Z,14.70
2023-05-15T08:56:47.325Z,14.60
2023-05-15T09:01:50.997Z,14.60
2023-05-15T09:06:54.590Z,14.80
2023-05-15T09:11:59.547Z,14.80
2023-05-15T09:17:02.375Z,14.90
2023-05-15T09:22:23.530Z,14.90
2023-05-15T09:27:26.464Z,14.90
2023-05-15T09:32:29.002Z,15.00
2023-05-15T09:37:34.187Z,15.00
2023-05-15T09:42:37.124Z,15.00
2023-05-15T09:47:39.879Z,14.90
2023-05-15T09:52:42.638Z,14.80
2023-05-15T09:57:45.601Z,14.80
2023-05-15T10:02:49.042Z,14.90
2023-05-15T10:07:54.621Z,15.00
2023-05-15T10:12:59.786Z,15.00
2023-05-15T10:18:04.866Z,15.30
2023-05-15T10:23:10.123Z,15.30
2023-05-15T10:28:13.743Z,15.30
2023-05-15T10:33:16.952Z,15.30
2023-05-15T10:38:20.445Z,15.30
2023-05-15T10:43:23.799Z,15.10
2023-05-15T10:48:27.182Z,14.90
2023-05-15T10:53:29.740Z,15.20
2023-05-15T10:58:33.133Z,15.40
2023-05-15T11:03:48.640Z,15.60
2023-05-15T11:08:52.555Z,15.50
2023-05-15T11:14:12.644Z,15.50
2023-05-15T11:19:28.399Z,15.30
2023-05-15T11:25:09.277Z,15.60
2023-05-15T11:30:22.871Z,15.90
2023-05-15T11:35:38.828Z,16.10
2023-05-15T11:40:46.762Z,16.10
2023-05-15T11:45:58.501Z,16.60
2023-05-15T11:51:05.668Z,17.90
2023-05-15T11:56:12.745Z,19.20
2023-05-15T12:01:15.609Z,18.80
2023-05-15T12:06:18.546Z,18.20
2023-05-15T12:11:24.602Z,18.10
2023-05-15T12:16:27.861Z,18.20
2023-05-15T12:21:31.316Z,17.70
2023-05-15T12:26:34.293Z,17.20
2023-05-15T12:31:37.027Z,16.90
2023-05-15T12:36:41.833Z,17.10
2023-05-15T12:41:47.169Z,17.10
2023-05-15T12:46:55.576Z,17.10
2023-05-15T12:51:58.153Z,16.30
2023-05-15T12:57:02.190Z,16.70
2023-05-15T13:02:06.182Z,17.50
2023-05-15T13:07:09.737Z,17.60
2023-05-15T13:12:12.764Z,17.30
2023-05-15T13:17:15.622Z,17.30
2023-05-15T13:22:18.063Z,16.70
2023-05-15T13:27:20.801Z,16.30
2023-05-15T13:32:23.411Z,16.10
2023-05-15T13:37:26.020Z,15.60
2023-05-15T13:42:28.532Z,15.50
2023-05-15T13:47:31.232Z,15.50
2023-05-15T13:52:33.821Z,16.20
2023-05-15T13:57:41.457Z,17.30
2023-05-15T14:02:44.717Z,18.30
2023-05-15T14:07:47.684Z,18.80
2023-05-15T14:12:50.558Z,18.70
2023-05-15T14:17:53.159Z,18.30
2023-05-15T14:22:56.223Z,18.20
2023-05-15T14:27:58.794Z,18.30
2023-05-15T14:33:01.428Z,18.80
2023-05-15T14:38:04.499Z,19.10
2023-05-15T14:43:07.414Z,18.30
2023-05-15T14:48:11.813Z,18.30
2023-05-15T14:53:14.362Z,18.20
2023-05-15T14:58:16.848Z,18.20
2023-05-15T15:03:20.672Z,18.30
2023-05-15T15:08:23.516Z,17.60
2023-05-15T15:13:27.363Z,17.20
2023-05-15T15:18:29.994Z,17.20
2023-05-15T15:23:32.550Z,17.50
2023-05-15T15:28:35.327Z,17.90
2023-05-15T15:33:38.172Z,18.10
2023-05-15T15:38:43.767Z,17.80
2023-05-15T15:43:46.388Z,17.60
2023-05-15T15:48:48.974Z,17.50
2023-05-15T15:53:51.525Z,17.20
2023-05-15T15:58:53.984Z,17.20
2023-05-15T16:03:56.524Z,17.40
2023-05-15T16:08:59.537Z,17.30
2023-05-15T16:14:02.147Z,16.80
2023-05-15T16:19:04.697Z,16.80
2023-05-15T16:24:07.540Z,17.20
2023-05-15T16:29:10.031Z,17.50
2023-05-15T16:34:13.378Z,17.10
2023-05-15T16:39:15.835Z,16.80
2023-05-15T16:44:19.258Z,16.20
2023-05-15T16:49:21.784Z,16.00
2023-05-15T16:54:24.260Z,17.00
2023-05-15T16:59:26.742Z,17.20
2023-05-15T17:04:33.127Z,16.50
2023-05-15T17:09:38.239Z,15.50
2023-05-15T17:14:40.979Z,14.80
2023-05-15T17:19:43.558Z,14.50
2023-05-15T17:24:51.402Z,14.80
2023-05-15T17:29:54.596Z,14.80
2023-05-15T17:34:57.146Z,14.20
2023-05-15T17:40:00.706Z,14.20
2023-05-15T17:45:04.861Z,14.40
2023-05-15T17:50:07.996Z,14.10
2023-05-15T17:55:10.753Z,13.70
2023-05-15T18:00:14.091Z,11.30
2023-05-15T18:05:17.234Z,13.20
2023-05-15T18:10:19.742Z,12.90
2023-05-15T18:15:22.304Z,12.60
2023-05-15T18:20:24.946Z,12.30
2023-05-15T18:25:27.811Z,12.00
2023-05-15T18:30:30.625Z,11.80
2023-05-15T18:40:36.157Z,11.60
2023-05-15T18:45:39.031Z,11.40
2023-05-15T18:50:41.660Z,11.30
2023-05-15T18:55:44.281Z,10.70
2023-05-15T19:00:49.215Z,10.60
2023-05-15T19:05:52.333Z,10.70
2023-05-15T19:10:54.830Z,10.60
2023-05-15T19:15:57.531Z,10.70
2023-05-15T19:21:00.894Z,10.70
2023-05-15T19:26:03.659Z,10.70
2023-05-15T19:31:08.186Z,10.80
2023-05-15T19:36:14.436Z,10.80
2023-05-15T19:41:17.017Z,10.90
2023-05-15T19:46:19.928Z,11.70
2023-05-15T19:51:22.576Z,12.00
2023-05-15T19:56:26.155Z,12.00
2023-05-15T20:01:28.845Z,12.20
2023-05-15T20:06:31.520Z,12.20
2023-05-15T20:11:34.256Z,12.40
2023-05-15T20:16:37.109Z,12.40
2023-05-15T20:21:39.787Z,12.60
2023-05-15T20:26:42.839Z,12.70
2023-05-15T20:31:45.798Z,12.80
2023-05-15T20:36:52.583Z,12.80
2023-05-15T20:41:55.066Z,12.80
2023-05-15T20:46:57.675Z,12.90
2023-05-15T20:52:01.056Z,12.90
2023-05-15T20:57:05.052Z,12.90
2023-05-15T21:02:07.714Z,12.80
2023-05-15T21:07:10.600Z,12.40
2023-05-15T21:12:14.151Z,12.30
2023-05-15T21:17:16.707Z,12.20
2023-05-15T21:22:19.236Z,12.00
2023-05-15T21:27:21.857Z,11.90
2023-05-15T21:32:24.789Z,11.80
2023-05-15T21:37:27.438Z,11.80
2023-05-15T21:42:31.961Z,11.90
2023-05-15T21:47:34.436Z,12.10
2023-05-15T21:52:37.117Z,12.00
2023-05-15T21:57:39.598Z,12.10
2023-05-15T22:02:42.175Z,12.20
2023-05-15T22:07:45.676Z,12.10
2023-05-15T22:12:48.406Z,12.10
2023-05-15T22:17:51.213Z,12.10
2023-05-15T22:22:53.758Z,12.10
2023-05-15T22:27:56.597Z,12.20
2023-05-15T22:32:59.217Z,12.20
2023-05-15T22:38:02.246Z,12.30
2023-05-15T22:43:04.723Z,12.40
2023-05-15T22:48:07.310Z,12.30
2023-05-15T22:53:10.107Z,12.40
2023-05-15T22:58:12.663Z,12.40
2023-05-15T23:03:15.473Z,12.40
2023-05-15T23:08:18.143Z,12.30
2023-05-15T23:13:20.600Z,12.30
2023-05-15T23:18:23.247Z,12.20
2023-05-15T23:23:25.963Z,12.30
2023-05-15T23:28:28.544Z,12.20
2023-05-15T23:33:31.097Z,12.20
2023-05-15T23:38:33.586Z,11.90
2023-05-15T23:43:36.054Z,11.50
2023-05-15T23:48:38.492Z,11.30
2023-05-15T23:53:41.149Z,11.10
2023-05-15T23:58:43.631Z,11.10
